sensor_id;sensor_type;location;lat;lon;timestamp;temperature;humidity
44747;DHT22;30472;49.490;10.972;2023-04-24T00:01:47;10.40;99.90
44747;DHT22;30472;49.490;10.972;2023-04-24T00:04:13;10.40;99.90
44747;DHT22;30472;49.490;10.972;2023-04-24T00:06:39;10.40;99.90
44747;DHT22;30472;49.490;10.972;2023-04-24T00:09:08;10.40;99.90
44747;DHT22;30472;49.490;10.972;2023-04-24T00:11:35;10.40;99.90
44747;DHT22;30472;49.490;10.972;2023-04-24T00:14:01;10.40;99.90
44747;DHT22;30472;49.490;10.972;2023-04-24T00:16:26;10.30;99.90
44747;DHT22;30472;49.490;10.972;2023-04-24T00:18:53;10.30;99.90
44747;DHT22;30472;49.490;10.972;2023-04-24T00:21:18;10.30;99.90
44747;DHT22;30472;49.490;10.972;2023-04-24T00:23:44;10.30;99.90
44747;DHT22;30472;49.490;10.972;2023-04-24T00:26:10;10.30;99.90
44747;DHT22;30472;49.490;10.972;2023-04-24T00:28:36;10.20;99.90
44747;DHT22;30472;49.490;10.972;2023-04-24T00:31:01;10.20;99.90
44747;DHT22;30472;49.490;10.972;2023-04-24T00:33:27;10.20;99.90
44747;DHT22;30472;49.490;10.972;2023-04-24T00:35:52;10.20;99.90
44747;DHT22;30472;49.490;10.972;2023-04-24T00:38:18;10.20;99.90
44747;DHT22;30472;49.490;10.972;2023-04-24T00:40:44;10.20;99.90
44747;DHT22;30472;49.490;10.972;2023-04-24T00:43:10;10.10;99.90
44747;DHT22;30472;49.490;10.972;2023-04-24T00:45:35;10.10;99.90
44747;DHT22;30472;49.490;10.972;2023-04-24T00:48:01;10.00;99.90
44747;DHT22;30472;49.490;10.972;2023-04-24T00:50:28;10.00;99.90
44747;DHT22;30472;49.490;10.972;2023-04-24T00:52:54;10.00;99.90
44747;DHT22;30472;49.490;10.972;2023-04-24T00:55:19;10.00;99.90
44747;DHT22;30472;49.490;10.972;2023-04-24T00:57:46;10.00;99.90
44747;DHT22;30472;49.490;10.972;2023-04-24T01:00:14;10.00;99.90
44747;DHT22;30472;49.490;10.972;2023-04-24T01:02:40;9.90;99.90
44747;DHT22;30472;49.490;10.972;2023-04-24T01:05:09;9.90;99.90
44747;DHT22;30472;49.490;10.972;2023-04-24T01:07:37;9.90;99.90
44747;DHT22;30472;49.490;10.972;2023-04-24T01:10:03;9.90;99.90
44747;DHT22;30472;49.490;10.972;2023-04-24T01:12:29;9.90;99.90
44747;DHT22;30472;49.490;10.972;2023-04-24T01:14:54;10.00;99.90
44747;DHT22;30472;49.490;10.972;2023-04-24T01:17:22;9.90;99.90
44747;DHT22;30472;49.490;10.972;2023-04-24T01:19:47;9.90;99.90
44747;DHT22;30472;49.490;10.972;2023-04-24T01:22:14;10.00;99.90
44747;DHT22;30472;49.490;10.972;2023-04-24T01:24:41;9.90;99.90
44747;DHT22;30472;49.490;10.972;2023-04-24T01:27:08;9.90;99.90
44747;DHT22;30472;49.490;10.972;2023-04-24T01:29:35;9.90;99.90
44747;DHT22;30472;49.490;10.972;2023-04-24T01:32:00;10.00;99.90
44747;DHT22;30472;49.490;10.972;2023-04-24T01:34:26;9.90;99.90
44747;DHT22;30472;49.490;10.972;2023-04-24T01:36:52;9.90;99.90
44747;DHT22;30472;49.490;10.972;2023-04-24T01:39:17;9.90;99.90
44747;DHT22;30472;49.490;10.972;2023-04-24T01:41:43;9.90;99.90
44747;DHT22;30472;49.490;10.972;2023-04-24T01:44:09;10.00;99.90
44747;DHT22;30472;49.490;10.972;2023-04-24T01:46:35;10.00;99.90
44747;DHT22;30472;49.490;10.972;2023-04-24T01:49:01;10.00;99.90
44747;DHT22;30472;49.490;10.972;2023-04-24T01:51:27;10.00;99.90
44747;DHT22;30472;49.490;10.972;2023-04-24T01:53:53;10.00;99.90
44747;DHT22;30472;49.490;10.972;2023-04-24T01:56:20;10.00;99.90
44747;DHT22;30472;49.490;10.972;2023-04-24T01:58:47;10.00;99.90
44747;DHT22;30472;49.490;10.972;2023-04-24T02:01:24;10.00;99.90
44747;DHT22;30472;49.490;10.972;2023-04-24T02:03:50;10.00;99.90
44747;DHT22;30472;49.490;10.972;2023-04-24T02:06:15;10.00;99.90
44747;DHT22;30472;49.490;10.972;2023-04-24T02:08:41;10.00;99.90
44747;DHT22;30472;49.490;10.972;2023-04-24T02:11:09;10.00;99.90
44747;DHT22;30472;49.490;10.972;2023-04-24T02:13:34;9.90;99.90
44747;DHT22;30472;49.490;10.972;2023-04-24T02:16:00;9.90;99.90
44747;DHT22;30472;49.490;10.972;2023-04-24T02:18:25;9.90;99.90
44747;DHT22;30472;49.490;10.972;2023-04-24T02:20:51;9.80;99.90
44747;DHT22;30472;49.490;10.972;2023-04-24T02:23:16;9.80;99.90
44747;DHT22;30472;49.490;10.972;2023-04-24T02:25:42;9.80;99.90
44747;DHT22;30472;49.490;10.972;2023-04-24T02:28:07;9.80;99.90
44747;DHT22;30472;49.490;10.972;2023-04-24T02:30:33;9.70;99.90
44747;DHT22;30472;49.490;10.972;2023-04-24T02:32:59;9.80;99.90
44747;DHT22;30472;49.490;10.972;2023-04-24T02:35:25;9.70;99.90
44747;DHT22;30472;49.490;10.972;2023-04-24T02:37:50;9.70;99.90
44747;DHT22;30472;49.490;10.972;2023-04-24T02:40:16;9.70;99.90
44747;DHT22;30472;49.490;10.972;2023-04-24T02:42:41;9.70;99.90
44747;DHT22;30472;49.490;10.972;2023-04-24T02:45:07;9.70;99.90
44747;DHT22;30472;49.490;10.972;2023-04-24T02:47:33;9.70;99.90
44747;DHT22;30472;49.490;10.972;2023-04-24T02:49:59;9.70;99.90
44747;DHT22;30472;49.490;10.972;2023-04-24T02:52:24;9.70;99.90
44747;DHT22;30472;49.490;10.972;2023-04-24T02:54:50;9.70;99.90
44747;DHT22;30472;49.490;10.972;2023-04-24T02:57:15;9.70;99.90
44747;DHT22;30472;49.490;10.972;2023-04-24T02:59:41;9.70;99.90
44747;DHT22;30472;49.490;10.972;2023-04-24T03:02:06;9.70;99.90
44747;DHT22;30472;49.490;10.972;2023-04-24T03:04:32;9.70;99.90
44747;DHT22;30472;49.490;10.972;2023-04-24T03:06:57;9.60;99.90
44747;DHT22;30472;49.490;10.972;2023-04-24T03:09:24;9.60;99.90
44747;DHT22;30472;49.490;10.972;2023-04-24T03:11:49;9.60;99.90
44747;DHT22;30472;49.490;10.972;2023-04-24T03:14:15;9.60;99.90
44747;DHT22;30472;49.490;10.972;2023-04-24T03:16:41;9.50;99.90
44747;DHT22;30472;49.490;10.972;2023-04-24T03:19:07;9.60;99.90
44747;DHT22;30472;49.490;10.972;2023-04-24T03:21:33;9.60;99.90
44747;DHT22;30472;49.490;10.972;2023-04-24T03:23:59;9.60;99.90
44747;DHT22;30472;49.490;10.972;2023-04-24T03:26:24;9.50;99.90
44747;DHT22;30472;49.490;10.972;2023-04-24T03:28:50;9.50;99.90
44747;DHT22;30472;49.490;10.972;2023-04-24T03:31:16;9.50;99.90
44747;DHT22;30472;49.490;10.972;2023-04-24T03:33:42;9.50;99.90
44747;DHT22;30472;49.490;10.972;2023-04-24T03:36:07;9.50;99.90
44747;DHT22;30472;49.490;10.972;2023-04-24T03:38:33;9.40;99.90
44747;DHT22;30472;49.490;10.972;2023-04-24T03:40:58;9.40;99.90
44747;DHT22;30472;49.490;10.972;2023-04-24T03:43:24;9.40;99.90
44747;DHT22;30472;49.490;10.972;2023-04-24T03:45:50;9.40;99.90
44747;DHT22;30472;49.490;10.972;2023-04-24T03:48:16;9.40;99.90
44747;DHT22;30472;49.490;10.972;2023-04-24T03:50:41;9.30;99.90
44747;DHT22;30472;49.490;10.972;2023-04-24T03:53:07;9.40;99.90
44747;DHT22;30472;49.490;10.972;2023-04-24T03:55:33;9.40;99.90
44747;DHT22;30472;49.490;10.972;2023-04-24T03:57:59;9.30;99.90
44747;DHT22;30472;49.490;10.972;2023-04-24T04:00:24;9.30;99.90
44747;DHT22;30472;49.490;10.972;2023-04-24T04:02:51;9.30;99.90
44747;DHT22;30472;49.490;10.972;2023-04-24T04:05:17;9.30;99.90
44747;DHT22;30472;49.490;10.972;2023-04-24T04:07:42;9.30;99.90
44747;DHT22;30472;49.490;10.972;2023-04-24T04:10:08;9.30;99.90
44747;DHT22;30472;49.490;10.972;2023-04-24T04:12:33;9.30;99.90
44747;DHT22;30472;49.490;10.972;2023-04-24T04:14:59;9.30;99.90
44747;DHT22;30472;49.490;10.972;2023-04-24T04:17:25;9.30;99.90
44747;DHT22;30472;49.490;10.972;2023-04-24T04:19:50;9.30;99.90
44747;DHT22;30472;49.490;10.972;2023-04-24T04:22:16;9.30;99.90
44747;DHT22;30472;49.490;10.972;2023-04-24T04:24:41;9.30;99.90
44747;DHT22;30472;49.490;10.972;2023-04-24T04:27:08;9.30;99.90
44747;DHT22;30472;49.490;10.972;2023-04-24T04:29:34;9.30;99.90
44747;DHT22;30472;49.490;10.972;2023-04-24T04:32:01;9.30;99.90
44747;DHT22;30472;49.490;10.972;2023-04-24T04:34:27;9.30;99.90
44747;DHT22;30472;49.490;10.972;2023-04-24T04:36:53;9.30;99.90
44747;DHT22;30472;49.490;10.972;2023-04-24T04:39:19;9.30;99.90
44747;DHT22;30472;49.490;10.972;2023-04-24T04:41:45;9.30;99.90
44747;DHT22;30472;49.490;10.972;2023-04-24T04:44:14;9.30;99.90
44747;DHT22;30472;49.490;10.972;2023-04-24T04:46:40;9.30;99.90
44747;DHT22;30472;49.490;10.972;2023-04-24T04:49:06;9.30;99.90
44747;DHT22;30472;49.490;10.972;2023-04-24T04:51:34;9.30;99.90
44747;DHT22;30472;49.490;10.972;2023-04-24T04:53:59;9.40;99.90
44747;DHT22;30472;49.490;10.972;2023-04-24T04:56:25;9.40;99.90
44747;DHT22;30472;49.490;10.972;2023-04-24T04:58:51;9.40;99.90
44747;DHT22;30472;49.490;10.972;2023-04-24T05:01:17;9.40;99.90
44747;DHT22;30472;49.490;10.972;2023-04-24T05:03:42;9.40;99.90
44747;DHT22;30472;49.490;10.972;2023-04-24T05:06:08;9.40;99.90
44747;DHT22;30472;49.490;10.972;2023-04-24T05:08:34;9.40;99.90
44747;DHT22;30472;49.490;10.972;2023-04-24T05:11:00;9.50;99.90
44747;DHT22;30472;49.490;10.972;2023-04-24T05:13:25;9.50;99.90
44747;DHT22;30472;49.490;10.972;2023-04-24T05:15:51;9.50;99.90
44747;DHT22;30472;49.490;10.972;2023-04-24T05:18:17;9.60;99.90
44747;DHT22;30472;49.490;10.972;2023-04-24T05:20:42;9.60;99.90
44747;DHT22;30472;49.490;10.972;2023-04-24T05:23:09;9.60;99.90
44747;DHT22;30472;49.490;10.972;2023-04-24T05:25:35;9.70;99.90
44747;DHT22;30472;49.490;10.972;2023-04-24T05:28:01;9.80;99.90
44747;DHT22;30472;49.490;10.972;2023-04-24T05:30:27;9.70;99.90
44747;DHT22;30472;49.490;10.972;2023-04-24T05:32:54;9.80;99.90
44747;DHT22;30472;49.490;10.972;2023-04-24T05:35:19;9.90;99.90
44747;DHT22;30472;49.490;10.972;2023-04-24T05:37:45;9.80;99.90
44747;DHT22;30472;49.490;10.972;2023-04-24T05:40:11;9.90;99.90
44747;DHT22;30472;49.490;10.972;2023-04-24T05:42:37;10.00;99.90
44747;DHT22;30472;49.490;10.972;2023-04-24T05:45:03;10.00;99.90
44747;DHT22;30472;49.490;10.972;2023-04-24T05:47:29;10.10;99.90
44747;DHT22;30472;49.490;10.972;2023-04-24T05:49:54;10.10;99.90
44747;DHT22;30472;49.490;10.972;2023-04-24T05:52:20;10.20;99.90
44747;DHT22;30472;49.490;10.972;2023-04-24T05:54:45;10.20;99.90
44747;DHT22;30472;49.490;10.972;2023-04-24T05:57:11;10.30;99.90
44747;DHT22;30472;49.490;10.972;2023-04-24T05:59:37;10.30;99.90
44747;DHT22;30472;49.490;10.972;2023-04-24T06:02:06;10.40;99.90
44747;DHT22;30472;49.490;10.972;2023-04-24T06:04:32;10.50;99.90
44747;DHT22;30472;49.490;10.972;2023-04-24T06:06:58;10.60;99.90
44747;DHT22;30472;49.490;10.972;2023-04-24T06:09:24;10.50;99.90
44747;DHT22;30472;49.490;10.972;2023-04-24T06:11:50;10.50;99.90
44747;DHT22;30472;49.490;10.972;2023-04-24T06:14:18;10.50;99.90
44747;DHT22;30472;49.490;10.972;2023-04-24T06:16:44;10.50;99.90
44747;DHT22;30472;49.490;10.972;2023-04-24T06:19:09;10.50;99.90
44747;DHT22;30472;49.490;10.972;2023-04-24T06:21:35;10.50;99.90
44747;DHT22;30472;49.490;10.972;2023-04-24T06:24:01;10.60;99.90
44747;DHT22;30472;49.490;10.972;2023-04-24T06:26:27;10.60;99.90
44747;DHT22;30472;49.490;10.972;2023-04-24T06:28:53;10.50;99.90
44747;DHT22;30472;49.490;10.972;2023-04-24T06:31:21;10.30;99.90
44747;DHT22;30472;49.490;10.972;2023-04-24T06:33:48;10.30;99.90
44747;DHT22;30472;49.490;10.972;2023-04-24T06:36:14;10.20;99.90
44747;DHT22;30472;49.490;10.972;2023-04-24T06:38:39;10.10;99.90
44747;DHT22;30472;49.490;10.972;2023-04-24T06:41:05;10.10;99.90
44747;DHT22;30472;49.490;10.972;2023-04-24T06:43:31;10.20;99.90
44747;DHT22;30472;49.490;10.972;2023-04-24T06:45:57;10.20;99.90
44747;DHT22;30472;49.490;10.972;2023-04-24T06:48:24;10.10;99.90
44747;DHT22;30472;49.490;10.972;2023-04-24T06:50:50;10.20;99.90
44747;DHT22;30472;49.490;10.972;2023-04-24T06:53:16;10.30;99.90
44747;DHT22;30472;49.490;10.972;2023-04-24T06:55:42;10.40;99.90
44747;DHT22;30472;49.490;10.972;2023-04-24T06:58:08;10.30;99.90
44747;DHT22;30472;49.490;10.972;2023-04-24T07:00:34;10.50;99.90
44747;DHT22;30472;49.490;10.972;2023-04-24T07:03:00;10.50;99.90
44747;DHT22;30472;49.490;10.972;2023-04-24T07:05:25;10.50;99.90
44747;DHT22;30472;49.490;10.972;2023-04-24T07:07:51;10.70;99.90
44747;DHT22;30472;49.490;10.972;2023-04-24T07:10:17;10.80;99.90
44747;DHT22;30472;49.490;10.972;2023-04-24T07:12:43;10.80;99.90
44747;DHT22;30472;49.490;10.972;2023-04-24T07:15:09;10.90;99.90
44747;DHT22;30472;49.490;10.972;2023-04-24T07:17:35;10.90;99.90
44747;DHT22;30472;49.490;10.972;2023-04-24T07:20:04;11.10;99.90
44747;DHT22;30472;49.490;10.972;2023-04-24T07:22:29;11.20;99.90
44747;DHT22;30472;49.490;10.972;2023-04-24T07:24:55;11.40;99.90
44747;DHT22;30472;49.490;10.972;2023-04-24T07:27:21;11.20;99.90
44747;DHT22;30472;49.490;10.972;2023-04-24T07:29:46;11.00;99.90
44747;DHT22;30472;49.490;10.972;2023-04-24T07:32:12;11.00;99.90
44747;DHT22;30472;49.490;10.972;2023-04-24T07:34:37;10.90;99.90
44747;DHT22;30472;49.490;10.972;2023-04-24T07:37:03;10.90;99.90
44747;DHT22;30472;49.490;10.972;2023-04-24T07:39:29;11.00;99.90
44747;DHT22;30472;49.490;10.972;2023-04-24T07:41:55;11.00;99.90
44747;DHT22;30472;49.490;10.972;2023-04-24T07:44:20;11.00;99.90
44747;DHT22;30472;49.490;10.972;2023-04-24T07:46:46;11.00;99.90
44747;DHT22;30472;49.490;10.972;2023-04-24T07:49:12;11.40;99.90
44747;DHT22;30472;49.490;10.972;2023-04-24T07:51:38;11.60;99.90
44747;DHT22;30472;49.490;10.972;2023-04-24T07:54:05;12.00;99.90
44747;DHT22;30472;49.490;10.972;2023-04-24T07:56:34;12.50;99.90
44747;DHT22;30472;49.490;10.972;2023-04-24T07:59:00;13.30;99.90
44747;DHT22;30472;49.490;10.972;2023-04-24T08:01:26;13.60;99.90
44747;DHT22;30472;49.490;10.972;2023-04-24T08:03:52;12.90;99.90
44747;DHT22;30472;49.490;10.972;2023-04-24T08:06:18;13.00;99.90
44747;DHT22;30472;49.490;10.972;2023-04-24T08:08:46;13.20;99.90
44747;DHT22;30472;49.490;10.972;2023-04-24T08:11:11;12.80;99.90
44747;DHT22;30472;49.490;10.972;2023-04-24T08:13:37;13.00;99.90
44747;DHT22;30472;49.490;10.972;2023-04-24T08:16:03;12.80;99.90
44747;DHT22;30472;49.490;10.972;2023-04-24T08:18:28;12.70;99.90
44747;DHT22;30472;49.490;10.972;2023-04-24T08:20:54;12.50;99.90
44747;DHT22;30472;49.490;10.972;2023-04-24T08:23:21;12.20;99.90
44747;DHT22;30472;49.490;10.972;2023-04-24T08:25:47;12.30;99.90
44747;DHT22;30472;49.490;10.972;2023-04-24T08:28:13;12.20;99.90
44747;DHT22;30472;49.490;10.972;2023-04-24T08:30:45;12.10;99.90
44747;DHT22;30472;49.490;10.972;2023-04-24T08:33:11;12.30;99.90
44747;DHT22;30472;49.490;10.972;2023-04-24T08:35:36;12.20;99.90
44747;DHT22;30472;49.490;10.972;2023-04-24T08:38:02;12.20;99.90
44747;DHT22;30472;49.490;10.972;2023-04-24T08:40:29;12.20;99.90
44747;DHT22;30472;49.490;10.972;2023-04-24T08:42:59;12.20;99.90
44747;DHT22;30472;49.490;10.972;2023-04-24T08:45:25;12.40;99.90
44747;DHT22;30472;49.490;10.972;2023-04-24T08:47:53;12.70;99.90
44747;DHT22;30472;49.490;10.972;2023-04-24T08:50:20;12.50;99.90
44747;DHT22;30472;49.490;10.972;2023-04-24T08:52:48;12.50;99.90
44747;DHT22;30472;49.490;10.972;2023-04-24T08:55:14;12.20;99.90
44747;DHT22;30472;49.490;10.972;2023-04-24T08:57:42;11.90;99.90
44747;DHT22;30472;49.490;10.972;2023-04-24T09:00:10;11.90;99.90
44747;DHT22;30472;49.490;10.972;2023-04-24T09:02:37;11.80;99.90
44747;DHT22;30472;49.490;10.972;2023-04-24T09:05:05;11.80;99.90
44747;DHT22;30472;49.490;10.972;2023-04-24T09:07:32;11.90;99.90
44747;DHT22;30472;49.490;10.972;2023-04-24T09:10:01;12.50;99.90
44747;DHT22;30472;49.490;10.972;2023-04-24T09:12:27;13.50;99.90
44747;DHT22;30472;49.490;10.972;2023-04-24T09:14:53;13.30;99.90
44747;DHT22;30472;49.490;10.972;2023-04-24T09:17:19;13.40;99.90
44747;DHT22;30472;49.490;10.972;2023-04-24T09:19:45;13.60;99.90
44747;DHT22;30472;49.490;10.972;2023-04-24T09:22:11;13.20;99.90
44747;DHT22;30472;49.490;10.972;2023-04-24T09:24:38;12.90;99.90
44747;DHT22;30472;49.490;10.972;2023-04-24T09:27:04;12.50;99.90
44747;DHT22;30472;49.490;10.972;2023-04-24T09:29:30;12.20;99.90
44747;DHT22;30472;49.490;10.972;2023-04-24T09:31:57;12.00;99.90
44747;DHT22;30472;49.490;10.972;2023-04-24T09:34:25;11.90;99.90
44747;DHT22;30472;49.490;10.972;2023-04-24T09:36:51;12.50;99.90
44747;DHT22;30472;49.490;10.972;2023-04-24T09:39:18;13.30;99.90
44747;DHT22;30472;49.490;10.972;2023-04-24T09:44:18;13.90;99.90
44747;DHT22;30472;49.490;10.972;2023-04-24T09:46:49;13.20;99.90
44747;DHT22;30472;49.490;10.972;2023-04-24T09:49:15;13.20;99.90
44747;DHT22;30472;49.490;10.972;2023-04-24T09:51:42;13.70;99.90
44747;DHT22;30472;49.490;10.972;2023-04-24T09:54:18;14.20;99.90
44747;DHT22;30472;49.490;10.972;2023-04-24T09:56:49;14.20;99.90
44747;DHT22;30472;49.490;10.972;2023-04-24T09:59:19;14.10;99.90
44747;DHT22;30472;49.490;10.972;2023-04-24T10:01:45;14.30;99.90
44747;DHT22;30472;49.490;10.972;2023-04-24T10:04:25;14.00;99.90
44747;DHT22;30472;49.490;10.972;2023-04-24T10:06:53;13.70;99.90
44747;DHT22;30472;49.490;10.972;2023-04-24T10:09:20;13.10;99.90
44747;DHT22;30472;49.490;10.972;2023-04-24T10:11:48;13.70;99.90
44747;DHT22;30472;49.490;10.972;2023-04-24T10:14:16;13.50;99.90
44747;DHT22;30472;49.490;10.972;2023-04-24T10:16:43;13.00;99.90
44747;DHT22;30472;49.490;10.972;2023-04-24T10:19:09;12.90;99.90
44747;DHT22;30472;49.490;10.972;2023-04-24T10:21:36;12.80;99.90
44747;DHT22;30472;49.490;10.972;2023-04-24T10:24:08;12.70;99.90
44747;DHT22;30472;49.490;10.972;2023-04-24T10:26:34;12.70;99.90
44747;DHT22;30472;49.490;10.972;2023-04-24T10:29:01;12.80;99.90
44747;DHT22;30472;49.490;10.972;2023-04-24T10:31:28;12.20;99.90
44747;DHT22;30472;49.490;10.972;2023-04-24T10:33:56;12.00;99.90
44747;DHT22;30472;49.490;10.972;2023-04-24T10:36:24;12.00;99.90
44747;DHT22;30472;49.490;10.972;2023-04-24T10:38:52;12.90;99.90
44747;DHT22;30472;49.490;10.972;2023-04-24T10:41:20;12.60;99.90
44747;DHT22;30472;49.490;10.972;2023-04-24T10:44:03;12.20;99.90
44747;DHT22;30472;49.490;10.972;2023-04-24T10:46:30;12.30;99.90
44747;DHT22;30472;49.490;10.972;2023-04-24T10:48:56;12.00;99.90
44747;DHT22;30472;49.490;10.972;2023-04-24T10:51:24;11.80;99.90
44747;DHT22;30472;49.490;10.972;2023-04-24T10:53:50;12.00;99.90
44747;DHT22;30472;49.490;10.972;2023-04-24T10:56:17;11.80;99.90
44747;DHT22;30472;49.490;10.972;2023-04-24T10:58:45;11.70;99.90
44747;DHT22;30472;49.490;10.972;2023-04-24T11:01:30;11.70;99.90
44747;DHT22;30472;49.490;10.972;2023-04-24T11:03:58;11.50;99.90
44747;DHT22;30472;49.490;10.972;2023-04-24T11:06:32;11.60;99.90
44747;DHT22;30472;49.490;10.972;2023-04-24T11:09:04;11.70;99.90
44747;DHT22;30472;49.490;10.972;2023-04-24T11:11:31;11.80;99.90
44747;DHT22;30472;49.490;10.972;2023-04-24T11:16:42;12.30;99.90
44747;DHT22;30472;49.490;10.972;2023-04-24T11:19:21;12.60;99.90
44747;DHT22;30472;49.490;10.972;2023-04-24T11:21:55;12.90;99.90
44747;DHT22;30472;49.490;10.972;2023-04-24T11:24:28;13.10;99.90
44747;DHT22;30472;49.490;10.972;2023-04-24T11:26:59;13.20;99.90
44747;DHT22;30472;49.490;10.972;2023-04-24T11:32:36;13.50;99.90
44747;DHT22;30472;49.490;10.972;2023-04-24T11:37:35;13.60;99.90
44747;DHT22;30472;49.490;10.972;2023-04-24T11:40:02;13.40;99.90
44747;DHT22;30472;49.490;10.972;2023-04-24T11:42:34;12.90;99.90
44747;DHT22;30472;49.490;10.972;2023-04-24T11:45:00;12.70;99.90
44747;DHT22;30472;49.490;10.972;2023-04-24T11:47:31;12.50;99.90
44747;DHT22;30472;49.490;10.972;2023-04-24T11:50:00;12.50;99.90
44747;DHT22;30472;49.490;10.972;2023-04-24T11:52:31;12.40;99.90
44747;DHT22;30472;49.490;10.972;2023-04-24T11:54:59;12.30;99.90
44747;DHT22;30472;49.490;10.972;2023-04-24T11:57:26;12.30;99.90
44747;DHT22;30472;49.490;10.972;2023-04-24T11:59:54;12.90;99.90
44747;DHT22;30472;49.490;10.972;2023-04-24T12:02:23;13.00;99.90
44747;DHT22;30472;49.490;10.972;2023-04-24T12:04:49;12.60;99.90
44747;DHT22;30472;49.490;10.972;2023-04-24T12:07:15;12.70;99.90
44747;DHT22;30472;49.490;10.972;2023-04-24T12:12:08;13.40;99.90
44747;DHT22;30472;49.490;10.972;2023-04-24T12:14:52;13.30;99.90
44747;DHT22;30472;49.490;10.972;2023-04-24T12:17:27;13.90;99.90
44747;DHT22;30472;49.490;10.972;2023-04-24T12:20:04;13.90;99.90
44747;DHT22;30472;49.490;10.972;2023-04-24T12:22:47;13.40;99.90
44747;DHT22;30472;49.490;10.972;2023-04-24T12:25:13;13.20;99.90
44747;DHT22;30472;49.490;10.972;2023-04-24T12:27:39;13.30;99.90
44747;DHT22;30472;49.490;10.972;2023-04-24T12:30:09;13.60;99.90
44747;DHT22;30472;49.490;10.972;2023-04-24T12:32:40;14.10;99.90
44747;DHT22;30472;49.490;10.972;2023-04-24T12:35:06;14.00;99.90
44747;DHT22;30472;49.490;10.972;2023-04-24T12:37:33;14.10;99.90
44747;DHT22;30472;49.490;10.972;2023-04-24T12:40:07;13.80;99.90
44747;DHT22;30472;49.490;10.972;2023-04-24T12:42:33;13.60;99.90
44747;DHT22;30472;49.490;10.972;2023-04-24T12:45:04;13.40;99.90
44747;DHT22;30472;49.490;10.972;2023-04-24T12:47:31;13.30;99.90
44747;DHT22;30472;49.490;10.972;2023-04-24T12:49:57;13.20;99.90
44747;DHT22;30472;49.490;10.972;2023-04-24T12:52:24;13.20;99.90
44747;DHT22;30472;49.490;10.972;2023-04-24T12:54:50;13.10;99.90
44747;DHT22;30472;49.490;10.972;2023-04-24T12:57:17;13.30;99.90
44747;DHT22;30472;49.490;10.972;2023-04-24T12:59:42;13.80;99.90
44747;DHT22;30472;49.490;10.972;2023-04-24T13:02:09;14.00;99.90
44747;DHT22;30472;49.490;10.972;2023-04-24T13:04:35;15.20;99.90
44747;DHT22;30472;49.490;10.972;2023-04-24T13:07:01;15.00;99.90
44747;DHT22;30472;49.490;10.972;2023-04-24T13:09:27;14.40;99.90
44747;DHT22;30472;49.490;10.972;2023-04-24T13:11:54;13.80;99.90
44747;DHT22;30472;49.490;10.972;2023-04-24T13:14:22;13.20;99.90
44747;DHT22;30472;49.490;10.972;2023-04-24T13:16:49;12.60;99.90
44747;DHT22;30472;49.490;10.972;2023-04-24T13:19:15;12.30;99.90
44747;DHT22;30472;49.490;10.972;2023-04-24T13:21:41;12.20;99.90
44747;DHT22;30472;49.490;10.972;2023-04-24T13:24:06;12.30;99.90
44747;DHT22;30472;49.490;10.972;2023-04-24T13:26:33;12.50;99.90
44747;DHT22;30472;49.490;10.972;2023-04-24T13:28:58;12.40;99.90
44747;DHT22;30472;49.490;10.972;2023-04-24T13:31:24;12.60;99.90
44747;DHT22;30472;49.490;10.972;2023-04-24T13:33:50;12.80;99.90
44747;DHT22;30472;49.490;10.972;2023-04-24T13:36:15;13.60;99.90
44747;DHT22;30472;49.490;10.972;2023-04-24T13:38:43;13.70;99.90
44747;DHT22;30472;49.490;10.972;2023-04-24T13:41:09;12.80;99.90
44747;DHT22;30472;49.490;10.972;2023-04-24T13:43:35;12.10;99.90
44747;DHT22;30472;49.490;10.972;2023-04-24T13:46:01;11.80;99.90
44747;DHT22;30472;49.490;10.972;2023-04-24T13:48:28;11.70;99.90
44747;DHT22;30472;49.490;10.972;2023-04-24T13:50:54;11.70;99.90
44747;DHT22;30472;49.490;10.972;2023-04-24T13:53:19;11.60;99.90
44747;DHT22;30472;49.490;10.972;2023-04-24T13:55:45;11.70;99.90
44747;DHT22;30472;49.490;10.972;2023-04-24T13:58:12;12.00;99.90
44747;DHT22;30472;49.490;10.972;2023-04-24T14:00:37;12.10;99.90
44747;DHT22;30472;49.490;10.972;2023-04-24T14:03:03;12.20;99.90
44747;DHT22;30472;49.490;10.972;2023-04-24T14:05:29;12.90;99.90
44747;DHT22;30472;49.490;10.972;2023-04-24T14:07:55;13.50;99.90
44747;DHT22;30472;49.490;10.972;2023-04-24T14:10:21;13.30;99.90
44747;DHT22;30472;49.490;10.972;2023-04-24T14:12:46;13.80;99.90
44747;DHT22;30472;49.490;10.972;2023-04-24T14:15:12;14.00;99.90
44747;DHT22;30472;49.490;10.972;2023-04-24T14:17:38;14.00;99.90
44747;DHT22;30472;49.490;10.972;2023-04-24T14:20:05;13.90;99.90
44747;DHT22;30472;49.490;10.972;2023-04-24T14:22:33;14.10;99.90
44747;DHT22;30472;49.490;10.972;2023-04-24T14:24:58;14.20;99.90
44747;DHT22;30472;49.490;10.972;2023-04-24T14:27:25;14.10;99.90
44747;DHT22;30472;49.490;10.972;2023-04-24T14:29:52;13.70;99.90
44747;DHT22;30472;49.490;10.972;2023-04-24T14:32:19;13.80;99.90
44747;DHT22;30472;49.490;10.972;2023-04-24T14:34:45;13.60;99.90
44747;DHT22;30472;49.490;10.972;2023-04-24T14:37:10;13.10;99.90
44747;DHT22;30472;49.490;10.972;2023-04-24T14:39:36;13.00;99.90
44747;DHT22;30472;49.490;10.972;2023-04-24T14:42:01;13.80;99.90
44747;DHT22;30472;49.490;10.972;2023-04-24T14:44:27;14.10;99.90
44747;DHT22;30472;49.490;10.972;2023-04-24T14:46:53;13.70;99.90
44747;DHT22;30472;49.490;10.972;2023-04-24T14:49:18;13.40;99.90
44747;DHT22;30472;49.490;10.972;2023-04-24T14:51:44;13.20;99.90
44747;DHT22;30472;49.490;10.972;2023-04-24T14:54:10;13.60;99.90
44747;DHT22;30472;49.490;10.972;2023-04-24T14:56:35;14.00;99.90
44747;DHT22;30472;49.490;10.972;2023-04-24T14:59:01;13.70;99.90
44747;DHT22;30472;49.490;10.972;2023-04-24T15:01:27;13.70;99.90
44747;DHT22;30472;49.490;10.972;2023-04-24T15:03:53;13.40;99.90
44747;DHT22;30472;49.490;10.972;2023-04-24T15:06:18;13.20;99.90
44747;DHT22;30472;49.490;10.972;2023-04-24T15:08:45;13.10;99.90
44747;DHT22;30472;49.490;10.972;2023-04-24T15:11:11;12.90;99.90
44747;DHT22;30472;49.490;10.972;2023-04-24T15:13:38;12.80;99.90
44747;DHT22;30472;49.490;10.972;2023-04-24T15:16:05;13.20;99.90
44747;DHT22;30472;49.490;10.972;2023-04-24T15:18:30;13.60;99.90
44747;DHT22;30472;49.490;10.972;2023-04-24T15:20:56;13.40;99.90
44747;DHT22;30472;49.490;10.972;2023-04-24T15:23:22;12.90;99.90
44747;DHT22;30472;49.490;10.972;2023-04-24T15:25:48;12.90;99.90
44747;DHT22;30472;49.490;10.972;2023-04-24T15:28:13;12.90;99.90
44747;DHT22;30472;49.490;10.972;2023-04-24T15:30:40;13.20;99.90